createdAt,value
2022-08-16T00:00:39.968Z,23.7
2022-08-16T00:03:15.613Z,23.7
2022-08-16T00:05:58.475Z,23.6
2022-08-16T00:08:38.107Z,23.5
2022-08-16T00:11:17.614Z,23.4
2022-08-16T00:13:56.059Z,23.4
2022-08-16T00:17:19.900Z,23.4
2022-08-16T00:19:55.595Z,23.5
2022-08-16T00:22:28.541Z,23.4
2022-08-16T00:25:00.611Z,23.3
2022-08-16T00:27:33.281Z,23.3
2022-08-16T00:30:29.863Z,23.1
2022-08-16T00:32:59.640Z,23.1
2022-08-16T00:35:36.160Z,23.2
2022-08-16T00:38:44.105Z,23.3
2022-08-16T00:41:19.559Z,23.3
2022-08-16T00:43:54.491Z,23.4
2022-08-16T00:46:36.111Z,23.4
2022-08-16T00:49:22.759Z,23.5
2022-08-16T00:51:56.283Z,23.5
2022-08-16T00:54:29.091Z,23.5
2022-08-16T00:57:02.011Z,23.4
2022-08-16T00:59:35.419Z,23.4
2022-08-16T01:02:33.940Z,23.5
2022-08-16T01:05:12.873Z,23.5
2022-08-16T01:07:54.450Z,23.5
2022-08-16T01:10:38.483Z,23.5
2022-08-16T01:13:17.346Z,23.5
2022-08-16T01:15:54.983Z,23.6
2022-08-16T01:18:43.023Z,23.6
2022-08-16T01:21:14.714Z,23.7
2022-08-16T01:24:03.199Z,23.7
2022-08-16T01:26:36.731Z,23.7
2022-08-16T01:29:10.672Z,23.7
2022-08-16T01:31:46.998Z,23.7
2022-08-16T01:34:27.118Z,23.7
2022-08-16T01:37:01.575Z,23.8
2022-08-16T01:39:36.709Z,23.8
2022-08-16T01:42:20.349Z,23.8
2022-08-16T01:44:57.227Z,23.8
2022-08-16T01:47:33.738Z,23.8
2022-08-16T01:51:17.412Z,23.9
2022-08-16T01:53:56.937Z,24
2022-08-16T01:56:29.190Z,24
2022-08-16T01:59:02.698Z,24
2022-08-16T02:01:36.574Z,24.1
2022-08-16T02:04:54.313Z,24.1
2022-08-16T02:07:25.976Z,24.1
2022-08-16T02:10:03.400Z,24.2
2022-08-16T02:13:01.256Z,24.1
2022-08-16T02:15:44.682Z,24.2
2022-08-16T02:18:19.576Z,24.1
2022-08-16T02:20:54.404Z,24.1
2022-08-16T02:23:30.214Z,24.1
2022-08-16T02:26:03.322Z,24.1
2022-08-16T02:28:36.234Z,24.1
2022-08-16T02:31:09.743Z,24
2022-08-16T02:33:51.170Z,24
2022-08-16T02:36:51.294Z,24.1
2022-08-16T02:39:24.469Z,24.1
2022-08-16T02:42:01.234Z,24.2
2022-08-16T02:44:42.696Z,24.2
2022-08-16T02:47:26.288Z,24.2
2022-08-16T02:51:11.973Z,24.2
2022-08-16T02:53:45.302Z,24
2022-08-16T02:56:16.562Z,23.9
2022-08-16T02:58:48.538Z,23.9
2022-08-16T03:01:37.937Z,23.9
2022-08-16T03:04:54.305Z,23.9
2022-08-16T03:07:29.324Z,23.8
2022-08-16T03:10:08.318Z,23.8
2022-08-16T03:12:57.496Z,23.7
2022-08-16T03:15:29.283Z,23.7
2022-08-16T03:18:40.694Z,23.7
2022-08-16T03:21:23.546Z,23.7
2022-08-16T03:23:54.455Z,23.7
2022-08-16T03:26:27.999Z,23.7
2022-08-16T03:29:00.819Z,23.7
2022-08-16T03:31:41.943Z,23.7
2022-08-16T03:34:14.320Z,23.7
2022-08-16T03:36:48.024Z,23.6
2022-08-16T03:39:27.572Z,23.6
2022-08-16T03:42:09.815Z,23.6
2022-08-16T03:44:50.064Z,23.6
2022-08-16T03:47:21.554Z,23.6
2022-08-16T03:49:56.031Z,23.6
2022-08-16T03:52:44.625Z,23.7
2022-08-16T03:55:16.825Z,23.7
2022-08-16T03:57:54.650Z,23.8
2022-08-16T04:00:42.284Z,23.8
2022-08-16T04:03:19.059Z,23.7
2022-08-16T04:05:54.741Z,23.8
2022-08-16T04:08:27.728Z,23.8
2022-08-16T04:10:59.840Z,23.8
2022-08-16T04:14:35.820Z,23.8
2022-08-16T04:17:07.473Z,23.7
2022-08-16T04:19:47.357Z,23.8
2022-08-16T04:22:30.553Z,23.9
2022-08-16T04:25:04.432Z,23.9
2022-08-16T04:27:38.501Z,24
2022-08-16T04:30:36.234Z,24.1
2022-08-16T04:33:11.850Z,24.1
2022-08-16T04:35:50.258Z,24.1
2022-08-16T04:38:22.859Z,24.2
2022-08-16T04:40:58.016Z,24.2
2022-08-16T04:43:31.164Z,24.2
2022-08-16T04:46:03.923Z,24.2
2022-08-16T04:49:46.768Z,24.5
2022-08-16T04:52:45.778Z,24.5
2022-08-16T04:55:18.787Z,24.6
2022-08-16T04:57:54.401Z,24.5
2022-08-16T05:00:34.285Z,24.4
2022-08-16T05:03:09.206Z,24.4
2022-08-16T05:06:07.010Z,24.4
2022-08-16T05:08:49.129Z,24.6
2022-08-16T05:11:33.028Z,24.7
2022-08-16T05:14:09.359Z,24.8
2022-08-16T05:16:41.497Z,25
2022-08-16T05:19:17.422Z,25.2
2022-08-16T05:21:52.091Z,25.2
2022-08-16T05:24:27.597Z,25.4
2022-08-16T05:27:12.525Z,25.4
2022-08-16T05:30:38.604Z,25.6
2022-08-16T05:33:18.647Z,25.7
2022-08-16T05:35:56.678Z,26
2022-08-16T05:38:41.035Z,26
2022-08-16T05:41:17.225Z,26.1
2022-08-16T05:43:50.107Z,26.3
2022-08-16T05:46:32.385Z,26.5
2022-08-16T05:49:10.178Z,26.6
2022-08-16T05:51:46.445Z,26.6
2022-08-16T05:54:26.806Z,26.7
2022-08-16T05:57:00.901Z,27
2022-08-16T05:59:37.283Z,27
2022-08-16T06:02:09.117Z,27.1
2022-08-16T06:04:46.435Z,27.3
2022-08-16T06:07:27.171Z,27.4
2022-08-16T06:10:03.499Z,27.3
2022-08-16T06:12:37.549Z,27.1
2022-08-16T06:15:10.908Z,26.9
2022-08-16T06:17:45.719Z,26.8
2022-08-16T06:20:36.754Z,26.7
2022-08-16T06:23:34.757Z,27
2022-08-16T06:26:08.430Z,26.9
2022-08-16T06:28:44.717Z,27
2022-08-16T06:31:25.375Z,27.2
2022-08-16T06:33:57.941Z,27.5
2022-08-16T06:36:34.771Z,27.6
2022-08-16T06:39:09.673Z,27.8
2022-08-16T06:41:48.959Z,27.9
2022-08-16T06:44:27.761Z,27.9
2022-08-16T06:47:03.410Z,28.1
2022-08-16T06:49:34.760Z,28.2
2022-08-16T06:53:09.620Z,28.2
2022-08-16T06:55:54.663Z,28.3
2022-08-16T06:58:32.803Z,28.4
2022-08-16T07:01:19.161Z,28.6
2022-08-16T07:04:37.554Z,28.7
2022-08-16T07:07:10.798Z,28.7
2022-08-16T07:09:46.743Z,28.9
2022-08-16T07:13:15.005Z,28.8
2022-08-16T07:16:59.614Z,29.1
2022-08-16T07:20:48.376Z,29
2022-08-16T07:23:19.017Z,29.2
2022-08-16T07:25:53.023Z,29.2
2022-08-16T07:28:26.728Z,29.3
2022-08-16T07:31:01.355Z,29.4
2022-08-16T07:33:55.536Z,29.5
2022-08-16T07:36:32.371Z,29.6
2022-08-16T07:39:04.755Z,29.8
2022-08-16T07:41:41.522Z,29.8
2022-08-16T07:44:17.567Z,29.8
2022-08-16T07:46:57.142Z,29.9
2022-08-16T07:49:33.125Z,30
2022-08-16T07:52:21.537Z,30.1
2022-08-16T07:54:54.337Z,30.3
2022-08-16T07:57:27.158Z,30.4
2022-08-16T08:00:02.331Z,30.3
2022-08-16T08:02:34.953Z,30.4
2022-08-16T08:05:07.986Z,30.5
2022-08-16T08:07:52.105Z,30.5
2022-08-16T08:10:30.784Z,30.6
2022-08-16T08:13:04.310Z,30.4
2022-08-16T08:15:53.825Z,30.5
2022-08-16T08:18:32.090Z,30.6
2022-08-16T08:21:02.205Z,30.7
2022-08-16T08:23:43.626Z,30.7
2022-08-16T08:26:18.708Z,30.6
2022-08-16T08:28:50.584Z,30.8
2022-08-16T08:31:23.722Z,31
2022-08-16T08:33:57.655Z,31
2022-08-16T08:36:37.223Z,31
2022-08-16T08:39:14.820Z,31.3
2022-08-16T08:41:52.165Z,31.3
2022-08-16T08:44:32.355Z,31.2
2022-08-16T08:47:12.909Z,31.3
2022-08-16T08:49:58.439Z,31.5
2022-08-16T08:52:41.311Z,31.5
2022-08-16T08:55:23.223Z,31.6
2022-08-16T08:57:55.887Z,31.7
2022-08-16T09:00:31.045Z,31.8
2022-08-16T09:03:21.947Z,31.9
2022-08-16T09:05:55.324Z,31.9
2022-08-16T09:08:28.084Z,31.9
2022-08-16T09:11:07.697Z,31.9
2022-08-16T09:13:51.552Z,32
2022-08-16T09:17:49.337Z,32.1
2022-08-16T09:20:26.268Z,32.5
2022-08-16T09:22:58.530Z,32.4
2022-08-16T09:25:35.749Z,32.5
2022-08-16T09:28:10.822Z,32.7
2022-08-16T09:30:45.852Z,32.6
2022-08-16T09:33:21.771Z,32.5
2022-08-16T09:35:55.572Z,32.7
2022-08-16T09:38:33.749Z,32.7
2022-08-16T09:41:15.117Z,32.9
2022-08-16T09:45:18.619Z,32.9
2022-08-16T09:47:59.568Z,32.8
2022-08-16T09:50:40.278Z,32.8
2022-08-16T09:53:21.786Z,33
2022-08-16T09:55:57.966Z,32.8
2022-08-16T09:59:08.898Z,32.8
2022-08-16T10:01:51.862Z,32.9
2022-08-16T10:04:55.454Z,33
2022-08-16T10:07:45.596Z,33.1
2022-08-16T10:10:31.684Z,32.9
2022-08-16T10:13:04.301Z,33
2022-08-16T10:15:41.863Z,33.2
2022-08-16T10:19:08.726Z,33.4
2022-08-16T10:21:41.501Z,33.3
2022-08-16T10:24:29.546Z,33.3
2022-08-16T10:28:26.535Z,33.3
2022-08-16T10:31:46.830Z,33.5
2022-08-16T10:34:33.226Z,33.3
2022-08-16T10:37:04.105Z,33.4
2022-08-16T10:39:43.514Z,33.5
2022-08-16T10:42:20.990Z,33.6
2022-08-16T10:44:56.207Z,33.6
2022-08-16T10:47:39.087Z,33.4
2022-08-16T10:50:20.865Z,33.4
2022-08-16T10:53:00.198Z,33.2
2022-08-16T10:55:58.176Z,33
2022-08-16T10:58:35.536Z,32.9
2022-08-16T11:06:00.889Z,32.8
2022-08-16T11:08:47.199Z,32.9
2022-08-16T11:11:20.503Z,32.8
2022-08-16T11:14:12.152Z,32.8
2022-08-16T11:17:11.803Z,33.1
2022-08-16T11:20:50.527Z,33.1
2022-08-16T11:23:20.852Z,33.1
2022-08-16T11:26:25.433Z,33.2
2022-08-16T11:29:27.296Z,33
2022-08-16T11:31:58.355Z,33
2022-08-16T11:35:17.195Z,32.9
2022-08-16T11:39:00.072Z,33
2022-08-16T11:41:34.157Z,33.2
2022-08-16T11:44:06.844Z,33
2022-08-16T11:46:47.290Z,33
2022-08-16T11:49:19.134Z,32.9
2022-08-16T11:51:51.212Z,32.9
2022-08-16T11:54:39.059Z,32.9
2022-08-16T11:57:10.333Z,32.8
2022-08-16T11:59:42.738Z,32.6
2022-08-16T12:02:34.372Z,32.6
2022-08-16T12:05:06.399Z,32.8
2022-08-16T12:07:39.951Z,33
2022-08-16T12:10:12.939Z,33.2
2022-08-16T12:12:47.306Z,33.4
2022-08-16T12:15:23.209Z,33.5
2022-08-16T12:17:59.313Z,33.5
2022-08-16T12:20:35.086Z,33.4
2022-08-16T12:23:07.856Z,33.3
2022-08-16T12:25:40.020Z,33.5
2022-08-16T12:28:13.536Z,33.6
2022-08-16T12:30:46.317Z,33.7
2022-08-16T12:33:28.281Z,33.9
2022-08-16T12:36:00.321Z,34
2022-08-16T12:38:54.061Z,34.3
2022-08-16T12:41:27.645Z,34.5
2022-08-16T12:44:02.310Z,34.3
2022-08-16T12:46:44.113Z,33.9
2022-08-16T12:49:24.201Z,33.6
2022-08-16T12:52:02.981Z,33.3
2022-08-16T12:54:39.820Z,33.2
2022-08-16T12:57:17.548Z,33
2022-08-16T12:59:56.772Z,33
2022-08-16T13:02:37.447Z,33
2022-08-16T13:05:12.449Z,33.3
2022-08-16T13:07:54.084Z,33.6
2022-08-16T13:10:39.924Z,34
2022-08-16T13:13:12.325Z,34.3
2022-08-16T13:16:20.531Z,34.5
2022-08-16T13:18:57.715Z,34.6
2022-08-16T13:21:31.825Z,34.9
2022-08-16T13:24:06.737Z,34.8
2022-08-16T13:26:41.568Z,34.7
2022-08-16T13:29:17.268Z,34.8
2022-08-16T13:31:49.317Z,34.6
2022-08-16T13:34:23.596Z,34.4
2022-08-16T13:36:56.406Z,34.3
2022-08-16T13:39:32.751Z,34
2022-08-16T13:42:06.689Z,33.9
2022-08-16T13:44:59.051Z,33.7
2022-08-16T13:47:30.982Z,33.7
2022-08-16T13:50:03.179Z,33.6
2022-08-16T13:52:45.694Z,33.5
2022-08-16T13:55:20.485Z,33.3
2022-08-16T13:58:56.725Z,33.1
2022-08-16T14:01:38.280Z,33
2022-08-16T14:04:27.465Z,32.8
2022-08-16T14:06:58.174Z,32.8
2022-08-16T14:09:32.235Z,32.6
2022-08-16T14:12:18.592Z,32.6
2022-08-16T14:14:57.654Z,32.5
2022-08-16T14:17:29.108Z,32.5
2022-08-16T14:20:51.786Z,32.4
2022-08-16T14:23:25.034Z,32.3
2022-08-16T14:26:00.689Z,32.3
2022-08-16T14:28:36.455Z,32.1
2022-08-16T14:31:10.054Z,32
2022-08-16T14:33:41.842Z,32
2022-08-16T14:36:30.768Z,32
2022-08-16T14:39:01.682Z,31.9
2022-08-16T14:41:34.911Z,31.9
2022-08-16T14:44:12.010Z,31.8
2022-08-16T14:46:45.417Z,31.8
2022-08-16T14:49:22.007Z,31.7
2022-08-16T14:51:53.686Z,31.7
2022-08-16T14:54:31.282Z,31.6
2022-08-16T14:57:04.532Z,31.6
2022-08-16T14:59:46.462Z,31.5
2022-08-16T15:02:35.767Z,31.4
2022-08-16T15:05:09.811Z,31.3
2022-08-16T15:07:46.908Z,31.3
2022-08-16T15:10:32.647Z,31.3
2022-08-16T15:13:05.257Z,31.2
2022-08-16T15:15:41.524Z,31.2
2022-08-16T15:18:32.276Z,31.1
2022-08-16T15:21:04.392Z,31
2022-08-16T15:23:41.886Z,31
2022-08-16T15:26:47.668Z,31
2022-08-16T15:29:20.496Z,30.9
2022-08-16T15:32:01.867Z,30.9
2022-08-16T15:34:39.128Z,30.8
2022-08-16T15:37:12.576Z,30.8
2022-08-16T15:39:56.464Z,30.7
2022-08-16T15:42:30.000Z,30.8
2022-08-16T15:45:12.567Z,30.6
2022-08-16T15:47:57.197Z,30.6
2022-08-16T15:50:28.747Z,30.6
2022-08-16T15:53:03.119Z,30.6
2022-08-16T15:55:36.189Z,30.6
2022-08-16T15:58:39.092Z,30.6
2022-08-16T16:01:10.191Z,30.6
2022-08-16T16:03:42.810Z,30.6
2022-08-16T16:06:29.545Z,30.5
2022-08-16T16:09:08.155Z,30.5
2022-08-16T16:11:42.936Z,30.4
2022-08-16T16:14:19.123Z,30.4
2022-08-16T16:16:55.060Z,30.4
2022-08-16T16:19:29.012Z,30.3
2022-08-16T16:22:02.546Z,30.2
2022-08-16T16:24:39.074Z,30.2
2022-08-16T16:27:10.867Z,30.2
2022-08-16T16:30:02.614Z,30.2
2022-08-16T16:33:22.980Z,30.3
2022-08-16T16:35:58.185Z,30.2
2022-08-16T16:38:29.768Z,30.2
2022-08-16T16:41:02.855Z,30.2
2022-08-16T16:43:36.141Z,30.1
2022-08-16T16:46:57.800Z,30.1
2022-08-16T16:49:28.453Z,30
2022-08-16T16:52:08.078Z,30.1
2022-08-16T16:54:51.546Z,30
2022-08-16T16:57:26.890Z,29.9
2022-08-16T17:00:39.006Z,29.9
2022-08-16T17:03:29.182Z,29.9
2022-08-16T17:06:11.033Z,29.9
2022-08-16T17:08:43.952Z,29.8
2022-08-16T17:11:23.372Z,29.8
2022-08-16T17:14:00.477Z,29.8
2022-08-16T17:16:34.216Z,29.7
2022-08-16T17:19:24.616Z,29.7
2022-08-16T17:24:53.277Z,29.7
2022-08-16T17:27:34.640Z,29.6
2022-08-16T17:30:17.377Z,29.6
2022-08-16T17:32:55.346Z,29.5
2022-08-16T17:35:35.370Z,29.5
2022-08-16T17:38:06.889Z,29.4
2022-08-16T17:41:00.001Z,29.4
2022-08-16T17:43:32.779Z,29.4
2022-08-16T17:46:53.587Z,29.3
2022-08-16T17:49:24.260Z,29.2
2022-08-16T17:51:56.489Z,29.1
2022-08-16T17:54:32.063Z,29.1
2022-08-16T17:57:04.490Z,29
2022-08-16T17:59:42.055Z,29
2022-08-16T18:02:45.639Z,29
2022-08-16T18:05:16.551Z,28.9
2022-08-16T18:07:49.323Z,28.8
2022-08-16T18:10:37.042Z,28.8
2022-08-16T18:13:10.045Z,28.7
2022-08-16T18:15:42.061Z,28.7
2022-08-16T18:18:14.655Z,28.6
2022-08-16T18:20:47.171Z,28.5
2022-08-16T18:23:24.508Z,28.4
2022-08-16T18:25:56.365Z,28.4
2022-08-16T18:28:30.175Z,28.3
2022-08-16T18:31:06.834Z,28.2
2022-08-16T18:33:44.623Z,28.1
2022-08-16T18:36:22.475Z,28.1
2022-08-16T18:38:53.745Z,28
2022-08-16T18:41:26.253Z,27.9
2022-08-16T18:44:35.667Z,27.9
2022-08-16T18:47:08.120Z,27.8
2022-08-16T18:49:41.599Z,27.8
2022-08-16T18:52:26.972Z,27.8
2022-08-16T18:55:18.584Z,27.8
2022-08-16T18:57:50.953Z,27.8
2022-08-16T19:00:24.031Z,27.7
2022-08-16T19:03:00.125Z,27.7
2022-08-16T19:05:31.834Z,27.6
2022-08-16T19:08:05.202Z,27.6
2022-08-16T19:10:38.123Z,27.6
2022-08-16T19:13:11.445Z,27.5
2022-08-16T19:15:44.735Z,27.5
2022-08-16T19:18:18.043Z,27.4
2022-08-16T19:20:50.822Z,27.4
2022-08-16T19:23:24.244Z,27.3
2022-08-16T19:26:00.256Z,27.3
2022-08-16T19:29:08.622Z,27.3
2022-08-16T19:31:40.394Z,27.3
2022-08-16T19:34:13.343Z,27.3
2022-08-16T19:36:46.371Z,27.4
2022-08-16T19:39:22.601Z,27.3
2022-08-16T19:41:56.236Z,27.3
2022-08-16T19:44:29.273Z,27.3
2022-08-16T19:47:02.341Z,27.2
2022-08-16T19:49:35.325Z,27.2
2022-08-16T19:52:08.193Z,27.2
2022-08-16T19:54:42.507Z,27.2
2022-08-16T19:57:14.916Z,27.2
2022-08-16T19:59:48.053Z,27.2
2022-08-16T20:02:37.182Z,27.2
2022-08-16T20:05:08.214Z,27.2
2022-08-16T20:07:42.790Z,27.2
2022-08-16T20:10:15.380Z,27.2
2022-08-16T20:13:04.103Z,27.1
2022-08-16T20:15:42.127Z,27.1
2022-08-16T20:18:26.779Z,27
2022-08-16T20:20:57.970Z,26.9
2022-08-16T20:23:30.875Z,26.8
2022-08-16T20:26:03.958Z,26.7
2022-08-16T20:28:56.008Z,26.7
2022-08-16T20:31:27.429Z,26.6
2022-08-16T20:33:59.923Z,26.6
2022-08-16T20:36:33.093Z,26.5
2022-08-16T20:39:06.753Z,26.5
2022-08-16T20:41:39.790Z,26.5
2022-08-16T20:44:12.838Z,26.5
2022-08-16T20:46:46.196Z,26.5
2022-08-16T20:49:18.960Z,26.4
2022-08-16T20:52:00.185Z,26.4
2022-08-16T20:54:31.279Z,26.4
2022-08-16T20:57:06.666Z,26.3
2022-08-16T20:59:39.492Z,26.3
2022-08-16T21:02:10.380Z,26.3
2022-08-16T21:04:43.586Z,26.3
2022-08-16T21:07:20.674Z,26.2
2022-08-16T21:09:53.574Z,26.1
2022-08-16T21:12:38.664Z,26
2022-08-16T21:15:14.635Z,26.1
2022-08-16T21:17:47.029Z,26.1
2022-08-16T21:20:20.302Z,26.2
2022-08-16T21:22:56.630Z,26.2
2022-08-16T21:25:30.922Z,26.1
2022-08-16T21:28:45.865Z,26.1
2022-08-16T21:31:15.870Z,26
2022-08-16T21:33:56.685Z,25.9
2022-08-16T21:36:38.951Z,25.9
2022-08-16T21:39:11.252Z,25.8
2022-08-16T21:41:42.344Z,25.7
2022-08-16T21:44:14.901Z,25.6
2022-08-16T21:46:52.288Z,25.6
2022-08-16T21:49:25.034Z,25.5
2022-08-16T21:51:57.855Z,25.4
2022-08-16T21:54:31.254Z,25.3
2022-08-16T21:57:14.474Z,25.3
2022-08-16T21:59:46.753Z,25.2
2022-08-16T22:02:22.161Z,25.2
2022-08-16T22:04:56.213Z,25.2
2022-08-16T22:07:30.448Z,25.1
2022-08-16T22:11:10.063Z,25.2
2022-08-16T22:13:51.389Z,25.2
2022-08-16T22:16:33.337Z,25.1
2022-08-16T22:19:06.620Z,25.1
2022-08-16T22:21:40.242Z,25
2022-08-16T22:24:15.190Z,25
2022-08-16T22:26:56.906Z,24.9
2022-08-16T22:29:30.129Z,24.8
2022-08-16T22:32:02.981Z,24.7
2022-08-16T22:34:35.530Z,24.7
2022-08-16T22:37:08.898Z,24.7
2022-08-16T22:39:42.010Z,24.6
2022-08-16T22:42:15.070Z,24.5
2022-08-16T22:44:47.816Z,24.4
2022-08-16T22:47:23.062Z,24.3
2022-08-16T22:49:58.069Z,24.3
2022-08-16T22:52:58.151Z,24.2
2022-08-16T22:55:29.609Z,24.3
2022-08-16T22:58:02.283Z,24.2
2022-08-16T23:00:34.501Z,24.2
2022-08-16T23:03:09.922Z,24.2
2022-08-16T23:05:42.910Z,24.2
2022-08-16T23:08:41.562Z,24.2
2022-08-16T23:11:11.261Z,24.2
2022-08-16T23:13:55.054Z,24.2
2022-08-16T23:16:35.516Z,24.2
2022-08-16T23:19:06.466Z,24.2
2022-08-16T23:21:39.988Z,24.1
2022-08-16T23:24:13.047Z,24.1
2022-08-16T23:26:50.570Z,24
2022-08-16T23:29:27.151Z,24
2022-08-16T23:31:59.632Z,23.9
2022-08-16T23:34:33.515Z,23.9
2022-08-16T23:37:06.163Z,23.9
2022-08-16T23:39:39.996Z,23.9
2022-08-16T23:42:54.064Z,23.9
2022-08-16T23:45:25.517Z,23.9
2022-08-16T23:47:58.595Z,23.9
2022-08-16T23:50:31.463Z,23.9
2022-08-16T23:53:04.809Z,23.9
2022-08-16T23:55:38.051Z,23.9
2022-08-16T23:58:11.028Z,23.9
